Stream Side, Ohio
Current Conditions -  °F | °C
As of 6:15 PM on Tuesday 25 Nov 2014 (Local Time) from KDWU Reporting Station
Clear Clear  
Wind Chill: 43°   Ceiling: Unl
Heat Index: 43°   Visibility: 10mi
Dew Point: 28°   Wind: 3mph
Humidity: 57%   Direction: 310°NW
Pressure: 30.1"   Gusts: NA
Location:  38.6456°N, 82.7977°W
Report Text: KDWU 252315Z AUTO 31003KT 10SM CLR 06/M02 A3010 RMK AO1
Loading
Personal Weather Stations






























Interactive Weather Map New forecast layout! Learn more

10-Day Weather Forecast

Advertisements
Track Severe Weather on mobile